Time;durP1;ratioP1;P1;durP2;ratioP2;P2;SDS_P1;SDS_P2;PMS_P1;PMS_P2;Temp;Humidity;BMP_temperature;BMP_pressure;BME280_temperature;BME280_humidity;BME280_pressure;Samples;Min_cycle;Max_cycle;Signal;HPM_P1;HPM_P2
2023/09/16 00:01:12;;;;;;;5.80;3.47;;;15.10;99.90;;;;;;5015517;28;20045;-76
2023/09/16 00:03:38;;;;;;;5.55;3.50;;;15.10;99.90;;;;;;5015360;28;20060;-76
2023/09/16 00:06:04;;;;;;;5.60;3.33;;;15.10;99.90;;;;;;5015450;28;20038;-76
2023/09/16 00:08:32;;;;;;;5.35;3.78;;;15.00;99.90;;;;;;5015700;28;20045;-76
2023/09/16 00:10:58;;;;;;;9.77;4.15;;;15.00;99.90;;;;;;4999014;28;20049;-76
2023/09/16 00:13:24;;;;;;;6.78;3.63;;;15.00;99.90;;;;;;4999057;28;20122;-76
2023/09/16 00:15:49;;;;;;;5.85;3.50;;;15.00;99.90;;;;;;5015385;28;20165;-76
2023/09/16 00:18:18;;;;;;;4.72;3.50;;;15.00;99.90;;;;;;5015417;28;20029;-76
2023/09/16 00:20:45;;;;;;;7.13;3.72;;;15.00;99.90;;;;;;4999181;28;20041;-76
2023/09/16 00:23:10;;;;;;;6.80;3.58;;;15.00;99.90;;;;;;5015306;28;20134;-76
2023/09/16 00:25:37;;;;;;;6.45;4.20;;;14.90;99.90;;;;;;5015582;28;20088;-76
2023/09/16 00:28:06;;;;;;;6.22;3.97;;;14.90;99.90;;;;;;5015220;28;20044;-76
2023/09/16 00:30:32;;;;;;;6.53;3.88;;;14.90;99.90;;;;;;4998762;28;20417;-76
2023/09/16 00:32:58;;;;;;;6.55;4.28;;;14.90;99.90;;;;;;5015102;28;20498;-76
2023/09/16 00:35:23;;;;;;;5.20;3.78;;;14.90;99.90;;;;;;4999172;28;20077;-76
2023/09/16 00:37:49;;;;;;;5.30;3.92;;;14.90;99.90;;;;;;5015198;28;20493;-76
2023/09/16 00:40:15;;;;;;;7.70;3.72;;;14.90;99.90;;;;;;5015216;28;20091;-76
2023/09/16 00:42:41;;;;;;;8.15;4.78;;;14.90;99.90;;;;;;5015484;28;20132;-76
2023/09/16 00:45:12;;;;;;;6.95;4.72;;;14.90;99.90;;;;;;5015099;28;20128;-76
2023/09/16 00:47:40;;;;;;;7.18;4.90;;;15.00;99.90;;;;;;4998817;28;20049;-76
2023/09/16 00:50:07;;;;;;;8.40;5.15;;;15.00;99.90;;;;;;5014987;28;20128;-76
2023/09/16 00:52:35;;;;;;;7.88;5.95;;;15.10;99.90;;;;;;4998620;28;20148;-76
2023/09/16 00:55:01;;;;;;;6.85;5.75;;;15.10;99.90;;;;;;5016870;28;20069;-76
2023/09/16 00:57:29;;;;;;;5.63;5.03;;;15.10;99.90;;;;;;5018756;28;20084;-76
2023/09/16 00:59:55;;;;;;;7.60;6.00;;;15.10;99.90;;;;;;5018704;28;20041;-76
2023/09/16 01:02:21;;;;;;;8.73;5.18;;;15.10;99.90;;;;;;5018599;28;20124;-76
2023/09/16 01:04:47;;;;;;;7.00;4.18;;;15.20;99.90;;;;;;5018605;28;20053;-76
2023/09/16 01:07:14;;;;;;;7.53;4.57;;;15.10;99.90;;;;;;5002243;28;20044;-76
2023/09/16 01:09:41;;;;;;;7.40;4.43;;;15.10;99.90;;;;;;5002219;28;20441;-76
2023/09/16 01:12:08;;;;;;;5.13;4.18;;;15.00;99.90;;;;;;5018389;28;20029;-76
2023/09/16 01:14:33;;;;;;;10.70;4.25;;;15.00;99.90;;;;;;5018711;28;20099;-76
2023/09/16 01:17:05;;;;;;;6.68;5.20;;;15.00;99.90;;;;;;5018669;28;20498;-76
2023/09/16 01:19:47;;;;;;;6.20;3.97;;;15.00;99.90;;;;;;5002049;28;20045;-76
2023/09/16 01:22:14;;;;;;;6.47;4.18;;;15.00;99.90;;;;;;5018300;28;20045;-76
2023/09/16 01:24:40;;;;;;;6.22;4.15;;;14.90;99.90;;;;;;5018491;28;20085;-76
2023/09/16 01:27:07;;;;;;;6.30;4.40;;;14.90;99.90;;;;;;5018225;28;20567;-76
2023/09/16 01:29:34;;;;;;;6.10;3.72;;;14.90;99.90;;;;;;5018259;28;20548;-76
2023/09/16 01:32:04;;;;;;;6.32;4.35;;;14.90;99.90;;;;;;5018284;28;20045;-76
2023/09/16 01:34:51;;;;;;;6.85;4.50;;;14.80;99.90;;;;;;5002369;28;20184;-76
2023/09/16 01:37:19;;;;;;;7.53;4.40;;;14.70;99.90;;;;;;5018091;28;20037;-76
2023/09/16 01:40:10;;;;;;;7.03;4.00;;;14.70;99.90;;;;;;5017975;28;20045;-76
2023/09/16 01:42:36;;;;;;;4.72;3.40;;;14.60;99.90;;;;;;5001550;28;20041;-76
2023/09/16 01:45:02;;;;;;;6.00;3.92;;;14.50;99.90;;;;;;5017915;28;20086;-76
2023/09/16 01:47:28;;;;;;;5.72;3.72;;;14.50;99.90;;;;;;5017814;28;20050;-76
2023/09/16 01:49:53;;;;;;;6.20;4.68;;;14.50;99.90;;;;;;5017797;28;20052;-76
2023/09/16 01:52:19;;;;;;;5.07;4.45;;;14.50;99.90;;;;;;5017985;28;20402;-76
2023/09/16 01:54:45;;;;;;;7.53;3.80;;;14.50;99.90;;;;;;5017955;28;20167;-75
2023/09/16 01:57:10;;;;;;;6.40;4.05;;;14.60;99.90;;;;;;5001631;28;20490;-75
2023/09/16 01:59:36;;;;;;;5.25;4.20;;;14.50;99.90;;;;;;5017700;28;20532;-75
2023/09/16 02:02:02;;;;;;;7.80;4.80;;;14.50;99.90;;;;;;5017496;28;20041;-75
2023/09/16 02:04:27;;;;;;;5.70;4.32;;;14.50;99.90;;;;;;5017516;28;20041;-76
2023/09/16 02:06:53;;;;;;;5.82;4.90;;;14.60;99.90;;;;;;5017203;28;20111;-76
2023/09/16 02:09:18;;;;;;;7.22;4.95;;;14.60;99.90;;;;;;5017389;28;20464;-76
2023/09/16 02:11:44;;;;;;;6.53;4.47;;;14.60;99.90;;;;;;5017345;28;20042;-76
2023/09/16 02:14:13;;;;;;;7.80;4.25;;;14.50;99.90;;;;;;5017633;28;20040;-76
2023/09/16 02:16:39;;;;;;;6.85;3.85;;;14.50;99.90;;;;;;5017308;28;20041;-76
2023/09/16 02:19:05;;;;;;;6.57;4.47;;;14.40;99.90;;;;;;5017484;28;20037;-76
2023/09/16 02:21:31;;;;;;;4.68;4.10;;;14.40;99.90;;;;;;5017164;28;20495;-76
2023/09/16 02:23:58;;;;;;;6.45;4.32;;;14.30;99.90;;;;;;5017439;28;20045;-76
2023/09/16 02:26:23;;;;;;;6.85;4.03;;;14.30;99.90;;;;;;5017376;28;20045;-76
2023/09/16 02:28:49;;;;;;;5.03;3.78;;;14.30;99.90;;;;;;5000974;28;20056;-76
2023/09/16 02:31:15;;;;;;;8.80;4.03;;;14.20;99.90;;;;;;5000643;28;20037;-76
2023/09/16 02:33:41;;;;;;;6.07;3.95;;;14.20;99.90;;;;;;5017183;28;20037;-76
2023/09/16 02:36:07;;;;;;;5.63;3.60;;;14.20;99.90;;;;;;5017236;28;20042;-76
2023/09/16 02:38:33;;;;;;;6.40;3.75;;;14.10;99.90;;;;;;5016935;28;20426;-76
2023/09/16 02:41:03;;;;;;;4.75;3.60;;;14.10;99.90;;;;;;5000753;28;20045;-76
2023/09/16 02:43:29;;;;;;;7.90;4.00;;;14.10;99.90;;;;;;5017061;28;20045;-76
2023/09/16 02:45:58;;;;;;;5.68;4.00;;;14.10;99.90;;;;;;5016761;28;20052;-76
2023/09/16 02:48:24;;;;;;;5.35;3.35;;;14.00;99.90;;;;;;5000387;28;20033;-76
2023/09/16 02:50:49;;;;;;;6.45;3.90;;;14.00;99.90;;;;;;5000332;28;20048;-76
2023/09/16 02:53:17;;;;;;;6.72;3.33;;;14.00;99.90;;;;;;5016538;28;20045;-76
2023/09/16 02:55:43;;;;;;;5.38;2.80;;;14.00;99.90;;;;;;5016615;28;20095;-76
2023/09/16 02:58:08;;;;;;;3.67;3.05;;;13.90;99.90;;;;;;5016787;28;20046;-76
2023/09/16 03:00:34;;;;;;;5.35;3.47;;;13.80;99.90;;;;;;5016523;28;20037;-76
2023/09/16 03:02:59;;;;;;;5.25;3.17;;;13.80;99.90;;;;;;5016415;28;20080;-76
2023/09/16 03:05:25;;;;;;;3.85;3.30;;;13.80;99.90;;;;;;5016469;28;20076;-76
2023/09/16 03:07:51;;;;;;;4.90;3.40;;;13.80;99.90;;;;;;5016412;28;20045;-76
2023/09/16 03:10:17;;;;;;;6.43;3.03;;;13.80;99.90;;;;;;5016313;28;20033;-76
2023/09/16 03:12:42;;;;;;;6.57;4.68;;;13.80;99.90;;;;;;5016458;28;20490;-76
2023/09/16 03:15:10;;;;;;;7.18;4.60;;;13.80;99.90;;;;;;5016566;28;20542;-76
2023/09/16 03:17:35;;;;;;;4.45;3.40;;;13.80;99.90;;;;;;5015585;28;20045;-76
2023/09/16 03:20:01;;;;;;;5.55;3.45;;;13.80;99.90;;;;;;5000091;28;20038;-76
2023/09/16 03:22:27;;;;;;;7.10;3.83;;;13.80;99.90;;;;;;4999709;28;20576;-76
2023/09/16 03:24:52;;;;;;;6.13;3.70;;;13.70;99.90;;;;;;5016085;28;20037;-76
2023/09/16 03:27:18;;;;;;;6.63;3.83;;;13.70;99.90;;;;;;5016284;28;20049;-76
2023/09/16 03:29:43;;;;;;;6.47;3.63;;;13.70;99.90;;;;;;5016120;28;20136;-76
2023/09/16 03:32:09;;;;;;;4.07;3.53;;;13.70;99.90;;;;;;5015744;28;20375;-76
2023/09/16 03:34:34;;;;;;;4.93;3.60;;;13.60;99.90;;;;;;5016206;28;20069;-76
2023/09/16 03:37:00;;;;;;;5.70;3.60;;;13.60;99.90;;;;;;5015909;28;20497;-76
2023/09/16 03:39:26;;;;;;;6.45;3.80;;;13.60;99.90;;;;;;5016095;28;20060;-76
2023/09/16 03:41:51;;;;;;;4.05;3.38;;;13.60;99.90;;;;;;5016275;28;20517;-74
2023/09/16 03:44:17;;;;;;;6.72;3.80;;;13.70;99.90;;;;;;5015803;28;20131;-74
2023/09/16 03:46:42;;;;;;;5.50;3.53;;;13.60;99.90;;;;;;5015733;28;20044;-74
2023/09/16 03:49:08;;;;;;;4.78;3.40;;;13.60;99.90;;;;;;5015854;28;20037;-74
2023/09/16 03:51:36;;;;;;;5.25;3.35;;;13.60;99.90;;;;;;5015616;28;20521;-74
2023/09/16 03:54:03;;;;;;;4.93;3.63;;;13.60;99.90;;;;;;4999133;28;20410;-74
2023/09/16 03:56:29;;;;;;;5.07;3.42;;;13.60;99.90;;;;;;5015574;28;20132;-74
2023/09/16 03:58:55;;;;;;;6.05;3.88;;;13.50;99.90;;;;;;5015705;28;20124;-74
2023/09/16 04:01:21;;;;;;;5.05;4.10;;;13.50;99.90;;;;;;5015388;28;20052;-74
2023/09/16 04:03:46;;;;;;;5.28;3.75;;;13.50;99.90;;;;;;5015407;28;20038;-74
2023/09/16 04:06:12;;;;;;;4.40;3.55;;;13.50;99.90;;;;;;5015475;28;20087;-74
2023/09/16 04:08:38;;;;;;;5.40;4.40;;;13.60;99.90;;;;;;5015476;28;20037;-74
2023/09/16 04:11:03;;;;;;;5.43;3.60;;;13.60;99.90;;;;;;5015362;28;20111;-74
2023/09/16 04:13:29;;;;;;;6.55;4.25;;;13.60;99.90;;;;;;5015389;28;20049;-74
2023/09/16 04:15:54;;;;;;;4.40;3.35;;;13.50;99.90;;;;;;5015394;28;20045;-74
2023/09/16 04:18:20;;;;;;;6.43;4.55;;;13.50;99.90;;;;;;5015625;28;20044;-74
2023/09/16 04:20:47;;;;;;;7.43;4.25;;;13.50;99.90;;;;;;5015616;28;20045;-74
2023/09/16 04:23:13;;;;;;;7.18;4.60;;;13.50;99.90;;;;;;4999185;28;20140;-74
2023/09/16 04:25:38;;;;;;;6.70;4.70;;;13.50;99.90;;;;;;4999271;28;20081;-74
2023/09/16 04:28:04;;;;;;;5.97;4.60;;;13.50;99.90;;;;;;5015672;28;20409;-74
2023/09/16 04:30:30;;;;;;;7.78;5.15;;;13.50;99.90;;;;;;5019159;28;20038;-74
2023/09/16 04:32:56;;;;;;;6.15;4.25;;;13.50;99.90;;;;;;5002676;28;20037;-74
2023/09/16 04:35:22;;;;;;;5.93;4.30;;;13.50;99.90;;;;;;5019156;28;20033;-74
2023/09/16 04:37:47;;;;;;;7.28;5.07;;;13.40;99.90;;;;;;5019425;28;20123;-74
2023/09/16 04:40:13;;;;;;;5.95;4.65;;;13.40;99.90;;;;;;5019128;28;20056;-74
2023/09/16 04:42:38;;;;;;;6.88;4.50;;;13.40;99.90;;;;;;5019072;28;20068;-74
2023/09/16 04:45:05;;;;;;;6.93;4.78;;;13.30;99.90;;;;;;5002930;28;20045;-74
2023/09/16 04:47:31;;;;;;;7.38;5.32;;;13.30;99.90;;;;;;5002959;28;20042;-73
2023/09/16 04:49:57;;;;;;;7.63;5.15;;;13.30;99.90;;;;;;5018872;28;20045;-73
2023/09/16 04:52:27;;;;;;;5.95;4.68;;;13.20;99.90;;;;;;5018786;28;20068;-74
2023/09/16 04:54:53;;;;;;;5.57;4.45;;;13.20;99.90;;;;;;5018815;28;20116;-74
2023/09/16 04:57:20;;;;;;;5.50;4.47;;;13.20;99.90;;;;;;5018762;28;20033;-74
2023/09/16 04:59:45;;;;;;;4.97;4.47;;;13.20;99.90;;;;;;5002694;28;20441;-74
2023/09/16 05:02:11;;;;;;;6.35;4.50;;;13.10;99.90;;;;;;5018946;28;20498;-74
2023/09/16 05:04:37;;;;;;;5.25;4.68;;;13.10;99.90;;;;;;5002305;28;20518;-74
2023/09/16 05:07:06;;;;;;;7.20;4.43;;;13.10;99.90;;;;;;5002570;28;20037;-74
2023/09/16 05:09:32;;;;;;;5.65;4.20;;;13.10;99.90;;;;;;5002156;28;20045;-74
2023/09/16 05:11:58;;;;;;;4.18;2.88;;;13.00;99.90;;;;;;5018445;28;20413;-74
2023/09/16 05:14:26;;;;;;;5.60;4.30;;;13.00;99.90;;;;;;5018482;28;20040;-74
2023/09/16 05:16:52;;;;;;;6.22;4.93;;;13.00;99.90;;;;;;5002123;28;20072;-73
2023/09/16 05:19:17;;;;;;;5.80;4.75;;;12.90;99.90;;;;;;5018428;28;20065;-73
2023/09/16 05:21:43;;;;;;;6.65;5.10;;;13.00;99.90;;;;;;5018586;28;20087;-73
2023/09/16 05:24:09;;;;;;;5.75;4.75;;;12.90;99.90;;;;;;5018383;28;20485;-73
2023/09/16 05:26:34;;;;;;;7.45;4.60;;;13.00;99.90;;;;;;5018501;28;20091;-73
2023/09/16 05:29:00;;;;;;;6.80;4.93;;;12.90;99.90;;;;;;5018407;28;20520;-73
2023/09/16 05:31:26;;;;;;;5.82;4.93;;;12.90;99.90;;;;;;5017868;28;20116;-74
2023/09/16 05:33:52;;;;;;;7.60;6.40;;;13.00;99.90;;;;;;5018094;28;20080;-73
2023/09/16 05:36:18;;;;;;;6.78;6.00;;;13.00;99.90;;;;;;5018021;28;20068;-73
2023/09/16 05:38:44;;;;;;;8.13;6.80;;;13.10;99.90;;;;;;5018241;28;20061;-74
2023/09/16 05:41:10;;;;;;;8.50;7.60;;;13.10;99.90;;;;;;5017376;28;20401;-74
2023/09/16 05:43:35;;;;;;;8.40;6.35;;;13.20;99.90;;;;;;5017925;28;20124;-74
2023/09/16 05:46:01;;;;;;;5.97;5.38;;;13.20;99.90;;;;;;5017944;28;20049;-74
2023/09/16 05:48:27;;;;;;;6.40;5.20;;;13.20;99.90;;;;;;5017883;28;20151;-74
2023/09/16 05:51:00;;;;;;;7.68;5.85;;;13.20;99.90;;;;;;5017753;28;20057;-74
2023/09/16 05:53:26;;;;;;;7.45;5.53;;;13.20;99.90;;;;;;5017724;28;20131;-74
2023/09/16 05:55:53;;;;;;;7.72;6.07;;;13.10;99.90;;;;;;5001311;28;20037;-74
2023/09/16 05:58:19;;;;;;;7.07;6.30;;;13.20;99.90;;;;;;5017682;28;20042;-74
2023/09/16 06:00:55;;;;;;;6.47;5.75;;;13.20;99.90;;;;;;5017917;28;20516;-74
2023/09/16 06:03:21;;;;;;;7.20;5.18;;;13.30;99.90;;;;;;5001218;28;20561;-73
2023/09/16 06:05:46;;;;;;;6.15;4.97;;;13.30;99.90;;;;;;5017543;28;20072;-73
2023/09/16 06:08:12;;;;;;;7.10;5.85;;;13.30;99.90;;;;;;5017706;28;20041;-73
2023/09/16 06:10:38;;;;;;;6.75;5.80;;;13.30;99.90;;;;;;5017412;28;20041;-70
2023/09/16 06:13:04;;;;;;;9.30;6.75;;;13.40;99.90;;;;;;5017313;28;20439;-71
2023/09/16 06:15:30;;;;;;;8.35;6.35;;;13.40;99.90;;;;;;5001094;28;20570;-71
2023/09/16 06:17:56;;;;;;;8.63;6.20;;;13.40;99.90;;;;;;5017564;28;20033;-71
2023/09/16 06:20:21;;;;;;;8.32;6.72;;;13.50;99.90;;;;;;5017274;28;20128;-70
2023/09/16 06:22:47;;;;;;;7.38;6.50;;;13.60;99.90;;;;;;5017258;28;20033;-71
2023/09/16 06:25:13;;;;;;;8.25;6.22;;;13.60;99.90;;;;;;5017545;28;20041;-71
2023/09/16 06:27:38;;;;;;;7.70;6.00;;;13.60;99.90;;;;;;5017360;28;20091;-70
2023/09/16 06:30:04;;;;;;;7.32;6.63;;;13.70;99.90;;;;;;5017163;28;20414;-71
2023/09/16 06:32:30;;;;;;;8.98;6.15;;;13.80;99.90;;;;;;5016865;28;20037;-71
2023/09/16 06:34:55;;;;;;;8.90;5.95;;;13.90;99.90;;;;;;5016964;28;20040;-71
2023/09/16 06:37:21;;;;;;;7.50;6.25;;;13.90;99.90;;;;;;5016905;28;20037;-71
2023/09/16 06:39:47;;;;;;;11.57;6.18;;;14.00;99.90;;;;;;5016922;28;20146;-71
2023/09/16 06:42:13;;;;;;;9.00;5.95;;;14.00;99.90;;;;;;5016885;28;20084;-70
2023/09/16 06:44:38;;;;;;;8.48;6.03;;;14.10;99.90;;;;;;5017586;28;20077;-71
2023/09/16 06:47:04;;;;;;;7.55;6.20;;;14.10;99.90;;;;;;5016720;28;20104;-70
2023/09/16 06:49:30;;;;;;;9.40;6.53;;;14.20;99.90;;;;;;5016627;28;20041;-70
2023/09/16 06:51:55;;;;;;;7.38;6.25;;;14.30;99.90;;;;;;5015838;28;20041;-68
2023/09/16 06:54:21;;;;;;;9.07;7.30;;;14.30;99.90;;;;;;5016604;28;20034;-70
2023/09/16 06:56:46;;;;;;;9.20;7.57;;;14.40;99.90;;;;;;5016627;28;20042;-70
2023/09/16 06:59:12;;;;;;;9.52;7.00;;;14.50;99.90;;;;;;5016553;28;20108;-70
2023/09/16 07:01:38;;;;;;;9.88;6.90;;;14.50;99.90;;;;;;5016432;28;20037;-70
2023/09/16 07:04:03;;;;;;;8.00;6.90;;;14.60;99.90;;;;;;5016705;28;20041;-70
2023/09/16 07:06:29;;;;;;;12.98;8.52;;;14.70;99.90;;;;;;5016370;28;20469;-70
2023/09/16 07:08:55;;;;;;;10.13;8.05;;;14.80;99.90;;;;;;4999943;28;20041;-70
2023/09/16 07:11:20;;;;;;;11.07;8.52;;;14.80;99.90;;;;;;5016269;28;20037;-70
2023/09/16 07:13:46;;;;;;;10.50;9.40;;;14.90;99.90;;;;;;5016265;28;20041;-69
2023/09/16 07:16:13;;;;;;;10.88;9.77;;;15.00;99.90;;;;;;5016462;28;20127;-70
2023/09/16 07:18:39;;;;;;;12.77;10.70;;;15.10;99.90;;;;;;4999787;28;20041;-70
2023/09/16 07:21:04;;;;;;;10.75;9.63;;;15.30;99.90;;;;;;5016152;28;20095;-70
2023/09/16 07:23:30;;;;;;;11.82;10.50;;;15.40;99.90;;;;;;5016253;28;20045;-70
2023/09/16 07:25:57;;;;;;;11.23;10.02;;;15.50;99.90;;;;;;5016323;28;20041;-70
2023/09/16 07:28:25;;;;;;;12.75;9.57;;;15.70;99.90;;;;;;5015956;28;20387;-70
2023/09/16 07:30:50;;;;;;;12.90;9.95;;;15.80;99.90;;;;;;4999591;28;20048;-70
2023/09/16 07:33:16;;;;;;;10.32;9.23;;;16.00;99.90;;;;;;5016458;28;20045;-70
2023/09/16 07:35:41;;;;;;;10.80;9.25;;;16.10;99.90;;;;;;5015909;28;20095;-70
2023/09/16 07:38:08;;;;;;;12.32;10.55;;;16.20;99.90;;;;;;5015873;28;20088;-70
2023/09/16 07:40:35;;;;;;;12.90;10.25;;;16.30;99.90;;;;;;5015822;28;20095;-70
2023/09/16 07:43:01;;;;;;;10.70;9.68;;;16.30;99.90;;;;;;5015935;28;20062;-70
2023/09/16 07:45:27;;;;;;;11.20;9.73;;;16.40;99.90;;;;;;5016005;28;20491;-70
2023/09/16 07:47:53;;;;;;;10.55;9.45;;;16.50;99.90;;;;;;5015753;28;20416;-70
2023/09/16 07:50:19;;;;;;;10.02;8.98;;;16.60;99.90;;;;;;5015600;28;20248;-70
2023/09/16 07:52:44;;;;;;;10.60;9.00;;;16.70;99.90;;;;;;5015586;28;20060;-70
2023/09/16 07:55:10;;;;;;;12.75;9.70;;;16.80;99.90;;;;;;4999329;28;20044;-70
2023/09/16 07:57:36;;;;;;;13.77;9.52;;;17.00;99.90;;;;;;5015902;28;20037;-70
2023/09/16 08:00:07;;;;;;;10.82;9.60;;;17.10;99.90;;;;;;5015574;28;20047;-70
2023/09/16 08:02:33;;;;;;;11.15;8.68;;;17.30;99.90;;;;;;5015546;28;20079;-70
2023/09/16 08:04:59;;;;;;;10.27;8.75;;;17.50;99.90;;;;;;5015204;28;20417;-70
2023/09/16 08:07:24;;;;;;;10.27;9.18;;;17.70;99.90;;;;;;4999166;28;20041;-70
2023/09/16 08:09:51;;;;;;;10.85;8.90;;;17.80;99.90;;;;;;5015374;28;20037;-70
2023/09/16 08:12:17;;;;;;;11.48;8.60;;;17.90;99.90;;;;;;5015400;28;20047;-70
2023/09/16 08:14:43;;;;;;;11.77;9.40;;;18.00;99.90;;;;;;5015380;28;20048;-70
2023/09/16 08:17:09;;;;;;;9.50;8.45;;;18.10;99.90;;;;;;5015340;28;20034;-70
2023/09/16 08:19:34;;;;;;;9.93;8.93;;;18.20;99.90;;;;;;5015638;28;20038;-70
2023/09/16 08:22:00;;;;;;;10.52;9.52;;;18.10;99.90;;;;;;5015258;28;20067;-70
2023/09/16 08:24:26;;;;;;;9.75;8.75;;;18.30;99.90;;;;;;5015557;28;20132;-70
2023/09/16 08:26:52;;;;;;;11.27;9.30;;;18.40;99.90;;;;;;5015271;28;20046;-70
2023/09/16 08:29:18;;;;;;;12.63;8.63;;;18.60;99.90;;;;;;5015448;28;20033;-70
2023/09/16 08:31:43;;;;;;;10.55;8.73;;;18.70;99.90;;;;;;5015097;28;20530;-70
2023/09/16 08:34:09;;;;;;;10.82;7.93;;;18.90;99.90;;;;;;4998961;28;20034;-70
2023/09/16 08:36:34;;;;;;;12.88;8.38;;;19.10;99.90;;;;;;5015153;28;20037;-70
2023/09/16 08:39:00;;;;;;;11.10;7.68;;;19.30;99.90;;;;;;5015156;28;20129;-70
2023/09/16 08:41:30;;;;;;;8.32;7.47;;;19.60;99.90;;;;;;5015104;28;20044;-70
2023/09/16 08:44:04;;;;;;;10.18;7.07;;;19.80;99.90;;;;;;5015148;28;20045;-70
2023/09/16 08:46:34;;;;;;;8.18;6.40;;;20.00;99.90;;;;;;5015141;28;20085;-70
2023/09/16 08:49:04;;;;;;;8.70;6.72;;;20.30;99.90;;;;;;5015000;28;20644;-70
2023/09/16 08:51:34;;;;;;;7.00;6.28;;;20.60;99.90;;;;;;5015570;28;20046;-70
2023/09/16 08:54:03;;;;;;;7.93;5.65;;;20.80;99.90;;;;;;5015228;28;20041;-70
2023/09/16 08:56:30;;;;;;;6.18;5.45;;;21.10;99.90;;;;;;5015013;28;20037;-70
2023/09/16 08:58:56;;;;;;;8.02;5.93;;;21.30;99.90;;;;;;5014972;28;20057;-70
2023/09/16 09:01:22;;;;;;;7.00;4.93;;;21.70;99.90;;;;;;5014901;28;20045;-70
2023/09/16 09:03:48;;;;;;;7.57;5.78;;;22.00;99.90;;;;;;5015939;28;20103;-70
2023/09/16 09:06:14;;;;;;;7.32;5.57;;;22.30;99.90;;;;;;5015187;28;20128;-70
2023/09/16 09:08:40;;;;;;;7.93;6.10;;;22.60;99.90;;;;;;5015156;28;20057;-71
2023/09/16 09:11:10;;;;;;;7.75;6.50;;;22.80;99.90;;;;;;5014864;28;20041;-71
2023/09/16 09:13:37;;;;;;;6.93;5.72;;;23.10;99.90;;;;;;5014812;28;20379;-71
2023/09/16 09:16:03;;;;;;;9.32;6.78;;;23.40;99.80;;;;;;5016834;28;20041;-70
2023/09/16 09:18:32;;;;;;;7.07;5.55;;;23.70;98.90;;;;;;5018420;28;20033;-70
2023/09/16 09:20:57;;;;;;;10.85;6.55;;;24.00;98.00;;;;;;5018378;28;20041;-70
2023/09/16 09:23:24;;;;;;;8.05;5.65;;;24.30;96.80;;;;;;5018518;28;20048;-70
2023/09/16 09:25:50;;;;;;;8.90;5.57;;;24.50;95.90;;;;;;5018230;28;20045;-71
2023/09/16 09:28:16;;;;;;;6.85;5.50;;;24.70;94.50;;;;;;5018265;28;20052;-70
2023/09/16 09:30:42;;;;;;;7.63;5.95;;;24.90;93.80;;;;;;5001742;28;20049;-71
2023/09/16 09:33:13;;;;;;;7.13;5.18;;;25.10;93.30;;;;;;5018396;28;20048;-71
2023/09/16 09:35:39;;;;;;;5.43;4.45;;;25.20;92.10;;;;;;5018167;28;20041;-71
2023/09/16 09:38:05;;;;;;;5.82;5.22;;;25.40;91.30;;;;;;5018074;28;20045;-71
2023/09/16 09:40:31;;;;;;;5.88;4.45;;;25.60;90.90;;;;;;5018072;28;20429;-71
2023/09/16 09:42:59;;;;;;;6.75;4.80;;;25.70;90.10;;;;;;5017948;28;20049;-70
2023/09/16 09:45:25;;;;;;;7.15;4.85;;;25.80;88.80;;;;;;5018178;28;20501;-70
2023/09/16 09:47:52;;;;;;;8.18;4.85;;;25.90;88.60;;;;;;5017889;28;20409;-70
2023/09/16 09:50:22;;;;;;;6.72;4.50;;;26.00;87.70;;;;;;5017774;28;20091;-70
2023/09/16 09:52:53;;;;;;;5.22;4.20;;;26.10;87.80;;;;;;5017734;28;20405;-70
2023/09/16 09:55:20;;;;;;;7.72;4.20;;;26.20;88.00;;;;;;5017793;28;20033;-70
2023/09/16 09:57:48;;;;;;;5.70;3.72;;;26.40;85.80;;;;;;5017947;28;20037;-70
2023/09/16 10:00:16;;;;;;;6.65;3.70;;;26.60;85.40;;;;;;5017910;28;20077;-70
2023/09/16 10:02:43;;;;;;;5.90;3.50;;;26.60;83.40;;;;;;5017759;28;20502;-71
2023/09/16 10:05:17;;;;;;;8.77;3.75;;;26.70;83.40;;;;;;5017578;28;20053;-71
2023/09/16 10:07:43;;;;;;;4.85;3.58;;;26.80;82.30;;;;;;5001229;28;20052;-71
2023/09/16 10:10:20;;;;;;;9.00;3.65;;;27.00;82.10;;;;;;5017417;28;20128;-70
2023/09/16 10:12:46;;;;;;;8.10;3.60;;;27.10;80.50;;;;;;5001061;28;20073;-71
2023/09/16 10:15:12;;;;;;;5.57;3.25;;;27.20;80.60;;;;;;5017381;28;20037;-70
2023/09/16 10:17:40;;;;;;;6.40;3.40;;;27.40;79.90;;;;;;5017587;28;20033;-71
2023/09/16 10:20:09;;;;;;;3.30;2.60;;;27.50;79.00;;;;;;5017871;28;20041;-70
2023/09/16 10:22:35;;;;;;;5.47;3.08;;;27.60;76.30;;;;;;5017220;28;20038;-70
2023/09/16 10:25:01;;;;;;;7.28;3.22;;;27.60;76.20;;;;;;5017178;28;20041;-70
2023/09/16 10:27:35;;;;;;;5.03;3.33;;;27.60;75.50;;;;;;5017240;28;20051;-71
2023/09/16 10:30:02;;;;;;;4.93;2.92;;;27.70;74.40;;;;;;5017050;28;20046;-71
2023/09/16 10:32:28;;;;;;;6.13;3.10;;;27.70;74.60;;;;;;5016934;28;20045;-71
2023/09/16 10:34:55;;;;;;;4.50;2.78;;;27.80;74.60;;;;;;5017017;28;20059;-71
2023/09/16 10:37:21;;;;;;;7.47;2.70;;;28.00;74.40;;;;;;5016967;28;20120;-70
2023/09/16 10:39:49;;;;;;;6.38;2.97;;;28.10;72.80;;;;;;5016939;28;20087;-70
2023/09/16 10:42:19;;;;;;;3.80;2.53;;;28.20;72.60;;;;;;5017075;28;20120;-70
2023/09/16 10:44:46;;;;;;;4.38;2.53;;;28.30;71.80;;;;;;5016881;28;20055;-70
2023/09/16 10:47:16;;;;;;;3.83;2.47;;;28.40;71.40;;;;;;5016806;28;20053;-70
2023/09/16 10:49:45;;;;;;;3.55;2.53;;;28.50;70.30;;;;;;5016915;28;20037;-70
2023/09/16 10:52:16;;;;;;;5.22;2.50;;;28.50;70.40;;;;;;5016628;28;20049;-70
2023/09/16 10:54:54;;;;;;;5.72;2.47;;;28.60;70.80;;;;;;5016679;28;20045;-70
2023/09/16 10:57:36;;;;;;;2.83;2.30;;;28.80;69.50;;;;;;5016602;28;20513;-70
2023/09/16 11:00:03;;;;;;;4.20;2.43;;;28.90;69.30;;;;;;5016807;28;20371;-71
2023/09/16 11:02:31;;;;;;;6.40;2.78;;;29.00;69.60;;;;;;5016451;28;20037;-71
2023/09/16 11:04:58;;;;;;;5.60;2.70;;;29.20;67.80;;;;;;5016463;28;20494;-71
2023/09/16 11:07:24;;;;;;;4.53;2.40;;;29.30;68.20;;;;;;5016675;28;20391;-70
2023/09/16 11:09:51;;;;;;;4.15;2.33;;;29.40;68.00;;;;;;5016487;28;20483;-71
2023/09/16 11:12:18;;;;;;;3.70;2.42;;;29.60;67.00;;;;;;5016465;28;20564;-71
2023/09/16 11:14:44;;;;;;;5.13;2.33;;;29.60;65.70;;;;;;5016308;28;20091;-70
2023/09/16 11:17:14;;;;;;;4.28;2.13;;;29.70;65.30;;;;;;5016279;28;20041;-70
2023/09/16 11:19:41;;;;;;;4.75;2.30;;;29.70;64.40;;;;;;5016425;28;20053;-70
2023/09/16 11:22:08;;;;;;;3.38;2.00;;;29.70;63.80;;;;;;4999718;28;20053;-70
2023/09/16 11:24:35;;;;;;;3.58;2.20;;;29.70;63.20;;;;;;5016084;28;20422;-70
2023/09/16 11:27:01;;;;;;;3.67;2.35;;;29.70;63.90;;;;;;5016350;28;20136;-70
2023/09/16 11:29:31;;;;;;;4.22;2.30;;;29.60;61.80;;;;;;5016295;28;20454;-70
2023/09/16 11:31:57;;;;;;;3.63;2.40;;;29.70;61.30;;;;;;5015762;28;20098;-70
2023/09/16 11:34:28;;;;;;;5.13;2.42;;;29.80;62.20;;;;;;5016030;28;20034;-70
2023/09/16 11:36:57;;;;;;;4.85;2.17;;;29.80;62.30;;;;;;5000399;28;20045;-70
2023/09/16 11:39:43;;;;;;;4.40;2.03;;;29.90;61.10;;;;;;5015398;28;20041;-70
2023/09/16 11:42:10;;;;;;;4.93;2.40;;;30.00;59.30;;;;;;4999436;28;20038;-70
2023/09/16 11:44:36;;;;;;;3.17;1.95;;;30.20;60.00;;;;;;5016002;28;20182;-70
2023/09/16 11:47:03;;;;;;;3.90;2.00;;;30.20;60.10;;;;;;5016045;28;20068;-70
2023/09/16 11:49:33;;;;;;;3.45;1.85;;;30.20;60.10;;;;;;4999517;28;20046;-70
2023/09/16 11:51:59;;;;;;;2.78;1.75;;;30.10;59.60;;;;;;5015638;28;20044;-70
2023/09/16 11:54:25;;;;;;;5.40;1.90;;;30.10;59.90;;;;;;4999561;28;20079;-70
2023/09/16 11:56:52;;;;;;;6.65;1.88;;;30.10;59.00;;;;;;5015605;28;20593;-70
2023/09/16 11:59:18;;;;;;;4.60;1.65;;;30.00;59.40;;;;;;5015638;28;20045;-70
2023/09/16 12:01:44;;;;;;;4.97;1.73;;;29.90;59.70;;;;;;5015534;28;20037;-71
2023/09/16 12:04:11;;;;;;;3.80;1.80;;;29.60;59.40;;;;;;5015568;28;20489;-70
2023/09/16 12:06:38;;;;;;;4.05;1.83;;;29.50;59.50;;;;;;5015498;28;20069;-70
2023/09/16 12:09:07;;;;;;;4.28;1.60;;;29.50;59.20;;;;;;5015676;28;20038;-70
2023/09/16 12:11:33;;;;;;;3.80;2.20;;;29.40;59.50;;;;;;5015619;28;20033;-70
2023/09/16 12:14:00;;;;;;;4.13;1.60;;;29.20;57.80;;;;;;5015398;28;20037;-70
2023/09/16 12:16:26;;;;;;;4.82;2.00;;;29.00;58.20;;;;;;5015674;28;20045;-71
2023/09/16 12:18:52;;;;;;;3.22;1.60;;;29.00;59.50;;;;;;5015645;28;20156;-71
2023/09/16 12:21:18;;;;;;;2.78;1.60;;;29.10;60.10;;;;;;5015345;28;20049;-70
2023/09/16 12:23:50;;;;;;;4.75;1.77;;;29.30;60.90;;;;;;5015285;28;20057;-70
2023/09/16 12:26:17;;;;;;;;;;;29.50;60.20;;;;;;5015760;28;20052;-70
2023/09/16 12:28:42;;;;;;;5.07;2.00;;;29.40;59.00;;;;;;4999001;28;19917;-71
2023/09/16 12:31:10;;;;;;;4.20;1.80;;;29.50;58.10;;;;;;5015222;28;20129;-70
2023/09/16 12:33:43;;;;;;;3.20;1.90;;;29.40;59.00;;;;;;5015081;28;20534;-70
2023/09/16 12:36:19;;;;;;;5.55;1.80;;;29.40;59.10;;;;;;5015273;28;20041;-70
2023/09/16 12:38:46;;;;;;;2.78;1.83;;;29.70;58.10;;;;;;5015199;28;20053;-70
2023/09/16 12:41:12;;;;;;;2.15;1.45;;;29.80;58.00;;;;;;4998849;28;20045;-70
2023/09/16 12:43:39;;;;;;;4.97;1.75;;;30.00;58.80;;;;;;5015068;28;20041;-71